Time;durP1;ratioP1;P1;durP2;ratioP2;P2;SDS_P1;SDS_P2;PMS_P1;PMS_P2;Temp;Humidity;BMP_temperature;BMP_pressure;BME280_temperature;BME280_humidity;BME280_pressure;Samples;Min_cycle;Max_cycle;Signal;HPM_P1;HPM_P2
2022/04/22 00:00:11;;;;;;;18.37;13.87;;;;;;;10.39;100.00;61905.94;5112595;28;20252;-72
2022/04/22 00:02:38;;;;;;;18.20;14.20;;;;;;;9.74;100.00;61844.50;5112517;28;20195;-72
2022/04/22 00:05:06;;;;;;;21.90;14.57;;;;;;;10.48;100.00;61921.22;5112252;28;20207;-72
2022/04/22 00:07:34;;;;;;;22.90;15.07;;;;;;;10.55;100.00;61923.06;5112643;28;20523;-71
2022/04/22 00:10:01;;;;;;;22.10;14.83;;;;;;;10.58;100.00;61931.91;5112403;28;20669;-72
2022/04/22 00:12:27;;;;;;;19.53;15.43;;;;;;;10.42;100.00;61909.69;5112501;28;20437;-73
2022/04/22 00:14:56;;;;;;;20.17;14.90;;;;;;;10.67;100.00;61939.00;5112523;28;20230;-75
2022/04/22 00:17:22;;;;;;;23.20;16.27;;;;;;;10.57;100.00;61930.84;5112310;28;20286;-73
2022/04/22 00:19:50;;;;;;;20.60;14.67;;;;;;;10.62;100.00;61936.22;5112278;28;20275;-73
2022/04/22 00:22:16;;;;;;;23.40;15.50;;;;;;;10.04;100.00;61874.59;5112719;28;20298;-72
2022/04/22 00:24:45;;;;;;;22.07;14.43;;;;;;;10.59;100.00;61932.97;5112453;28;20493;-72
2022/04/22 00:27:12;;;;;;;19.23;15.30;;;;;;;10.54;100.00;61932.19;5112316;28;20267;-71
2022/04/22 00:29:38;;;;;;;23.00;16.03;;;;;;;10.58;100.00;61929.38;5112268;28;20238;-71
2022/04/22 00:32:06;;;;;;;22.20;16.17;;;;;;;10.58;100.00;61934.47;5112386;28;20252;-72
2022/04/22 00:34:33;;;;;;;19.07;14.70;;;;;;;10.10;100.00;61873.41;5111771;28;20303;-72
2022/04/22 00:37:00;;;;;;;21.23;15.67;;;;;;;10.51;100.00;61924.41;5112121;28;20670;-72
2022/04/22 00:39:27;;;;;;;21.87;15.97;;;;;;;10.40;100.00;61907.53;5112227;28;20867;-71
2022/04/22 00:41:55;;;;;;;20.80;14.80;;;;;;;10.54;100.00;61927.63;5112137;28;20629;-72
2022/04/22 00:44:22;;;;;;;19.83;14.40;;;;;;;10.53;100.00;61924.00;5112003;28;20194;-72
2022/04/22 00:46:49;;;;;;;18.20;14.07;;;;;;;10.49;100.00;61922.28;5112235;28;20437;-72
2022/04/22 00:49:15;;;;;;;20.93;14.80;;;;;;;10.28;100.00;61897.25;5111843;28;20203;-73
2022/04/22 00:51:44;;;;;;;19.03;13.63;;;;;;;10.53;100.00;61926.56;5111880;28;20489;-72
2022/04/22 00:54:11;;;;;;;19.97;12.70;;;;;;;10.49;100.00;61922.28;5111889;28;20563;-72
2022/04/22 00:56:39;;;;;;;19.17;12.40;;;;;;;10.40;100.00;61912.63;5111931;28;20482;-72
2022/04/22 00:59:08;;;;;;;17.10;11.70;;;;;;;9.72;100.00;61839.81;5111496;28;20711;-72
2022/04/22 01:01:35;;;;;;;16.20;10.90;;;;;;;9.73;100.00;61840.88;5111659;28;20565;-73
2022/04/22 01:09:51;;;;;;;15.60;10.30;;;;;;;10.24;100.00;61895.50;5111776;28;20989;-72
2022/04/22 01:12:19;;;;;;;12.33;9.23;;;;;;;10.36;100.00;61902.72;5114025;28;20203;-72
2022/04/22 01:14:48;;;;;;;13.27;9.40;;;;;;;10.18;100.00;61889.59;5116109;28;20222;-73
2022/04/22 01:17:15;;;;;;;12.03;8.50;;;;;;;10.09;100.00;61879.41;5115863;28;20436;-73
2022/04/22 01:19:42;;;;;;;11.90;6.97;;;;;;;10.02;100.00;61869.38;5115655;28;20472;-72
2022/04/22 01:22:11;;;;;;;15.67;7.73;;;;;;;10.01;100.00;61868.31;5115685;28;20523;-72
2022/04/22 01:24:37;;;;;;;12.97;7.77;;;;;;;10.10;100.00;61880.50;5115710;28;20440;-72
2022/04/22 01:27:06;;;;;;;11.87;6.70;;;;;;;9.57;100.00;61823.75;5115947;28;20499;-72
2022/04/22 01:29:33;;;;;;;11.33;7.20;;;;;;;9.59;100.00;61828.44;5115632;28;20476;-72
2022/04/22 01:32:01;;;;;;;11.40;6.83;;;;;;;9.88;100.00;61854.91;5114289;28;20452;-72
2022/04/22 01:34:29;;;;;;;8.80;6.80;;;;;;;9.30;100.00;61795.94;5115469;28;20512;-72
2022/04/22 01:36:55;;;;;;;12.33;7.70;;;;;;;9.89;100.00;61858.00;5115803;28;20452;-72
2022/04/22 01:39:23;;;;;;;16.03;7.57;;;;;;;9.96;100.00;61865.50;5115646;28;20195;-71
2022/04/22 01:41:50;;;;;;;13.87;8.43;;;;;;;10.05;100.00;61872.59;5115496;28;20864;-72
2022/04/22 01:44:17;;;;;;;14.73;8.80;;;;;;;9.92;100.00;61861.22;5115530;28;20202;-72
2022/04/22 01:46:44;;;;;;;17.87;10.97;;;;;;;10.05;100.00;61875.13;5115409;28;20289;-72
2022/04/22 01:49:11;;;;;;;18.40;13.13;;;;;;;9.74;100.00;61844.50;5115148;28;20486;-72
2022/04/22 01:51:40;;;;;;;23.37;14.33;;;;;;;9.78;100.00;61846.22;5115116;28;20448;-72
2022/04/22 01:54:07;;;;;;;25.87;15.03;;;;;;;9.65;100.00;61827.22;5115371;28;20518;-72
2022/04/22 01:56:35;;;;;;;22.40;15.73;;;;;;;9.63;100.00;61832.72;5115276;28;20543;-73
2022/04/22 01:59:02;;;;;;;19.57;15.43;;;;;;;9.48;100.00;61814.13;5115397;28;20437;-72
2022/04/22 02:01:29;;;;;;;23.70;14.83;;;;;;;9.46;100.00;61815.03;5115048;28;20527;-73
2022/04/22 02:03:56;;;;;;;21.00;15.37;;;;;;;9.42;100.00;61807.72;5114893;28;20502;-71
2022/04/22 02:06:22;;;;;;;27.70;15.93;;;;;;;8.84;100.00;61746.19;5115107;27;20448;-73
2022/04/22 02:08:49;;;;;;;22.50;15.37;;;;;;;9.41;100.00;61806.63;5115149;28;20513;-72
2022/04/22 02:11:16;;;;;;;19.50;14.40;;;;;;;9.28;100.00;61793.78;5115013;28;20441;-72
2022/04/22 02:13:44;;;;;;;20.83;14.27;;;;;;;9.21;100.00;61783.75;5114766;28;20510;-71
2022/04/22 02:16:12;;;;;;;21.93;14.67;;;;;;;9.36;100.00;61802.34;5114697;28;20494;-72
2022/04/22 02:18:41;;;;;;;20.00;13.77;;;;;;;9.40;100.00;61805.56;5114653;28;20456;-72
2022/04/22 02:21:09;;;;;;;20.60;14.77;;;;;;;9.36;100.00;61799.81;5115099;27;20473;-72
2022/04/22 02:23:36;;;;;;;18.90;13.67;;;;;;;9.38;100.00;61798.34;5114860;28;20437;-72
2022/04/22 02:26:04;;;;;;;20.63;13.00;;;;;;;9.07;100.00;61771.31;5114878;28;20502;-72
2022/04/22 02:28:33;;;;;;;25.80;13.50;;;;;;;9.28;100.00;61791.25;5113535;28;20440;-74
2022/04/22 02:31:04;;;;;;;25.23;14.20;;;;;;;9.36;100.00;61799.81;5114296;28;20846;-72
2022/04/22 02:33:31;;;;;;;20.87;13.67;;;;;;;9.47;100.00;61810.50;5114673;28;20440;-73
2022/04/22 02:35:59;;;;;;;16.13;13.13;;;;;;;9.57;100.00;61823.75;5114555;28;20507;-72
2022/04/22 02:38:27;;;;;;;16.73;13.07;;;;;;;9.54;100.00;61820.53;5114333;28;20447;-73
2022/04/22 02:46:24;;;;;;;21.43;15.33;;;;;;;9.44;100.00;61809.84;5114572;28;20514;-72
2022/04/22 02:48:51;;;;;;;19.33;14.97;;;;;;;9.30;100.00;61795.94;5114862;28;20440;-72
2022/04/22 02:51:19;;;;;;;22.70;15.07;;;;;;;9.20;100.00;61782.16;5114192;28;20441;-72
2022/04/22 02:53:46;;;;;;;20.07;14.63;;;;;;;8.71;100.00;61732.84;5114074;28;20947;-72
2022/04/22 02:56:13;;;;;;;23.87;15.90;;;;;;;9.38;100.00;61804.47;5113814;28;20492;-72
2022/04/22 02:58:42;;;;;;;23.37;15.07;;;;;;;9.40;100.00;61806.09;5114089;28;20502;-73
2022/04/22 03:01:08;;;;;;;22.20;14.50;;;;;;;9.44;100.00;61809.84;5114171;28;20445;-72
2022/04/22 03:03:37;;;;;;;19.53;13.53;;;;;;;9.50;100.00;61816.25;5113563;28;20453;-71
2022/04/22 03:06:04;;;;;;;20.23;14.00;;;;;;;9.53;100.00;61814.38;5114036;28;20436;-73
2022/04/22 03:08:32;;;;;;;20.93;13.57;;;;;;;8.89;100.00;61749.00;5113664;28;20448;-72
2022/04/22 03:11:00;;;;;;;19.43;13.97;;;;;;;9.53;100.00;61819.47;5114007;28;20479;-72
2022/04/22 03:13:27;;;;;;;23.00;15.57;;;;;;;9.54;100.00;61820.53;5113851;28;20519;-73
2022/04/22 03:15:54;;;;;;;18.47;13.20;;;;;;;9.62;100.00;61829.09;5113700;28;20549;-73
2022/04/22 03:18:21;;;;;;;18.20;13.73;;;;;;;9.62;100.00;61829.09;5113590;28;20496;-71
2022/04/22 03:20:49;;;;;;;18.03;12.70;;;;;;;9.67;100.00;61834.44;5113469;28;20448;-73
2022/04/22 03:23:16;;;;;;;20.50;13.83;;;;;;;9.67;100.00;61831.91;5113356;28;20433;-72
2022/04/22 03:25:43;;;;;;;19.23;13.20;;;;;;;8.95;100.00;61755.41;5113349;27;20444;-73
2022/04/22 03:28:10;;;;;;;18.27;12.57;;;;;;;9.48;100.00;61814.13;5113782;28;20509;-72
2022/04/22 03:30:37;;;;;;;15.47;12.00;;;;;;;9.67;100.00;61834.44;5112939;28;20472;-74
2022/04/22 03:33:05;;;;;;;22.07;12.27;;;;;;;9.72;100.00;61837.25;5113378;28;20523;-72
2022/04/22 03:35:32;;;;;;;20.80;13.53;;;;;;;9.61;100.00;61825.47;5112398;28;20518;-73
2022/04/22 03:38:00;;;;;;;19.30;13.57;;;;;;;9.70;100.00;61840.72;5113407;28;20437;-74
2022/04/22 03:40:27;;;;;;;21.27;13.93;;;;;;;9.50;100.00;61814.25;5113271;28;20498;-72
2022/04/22 03:42:54;;;;;;;18.83;13.87;;;;;;;9.52;100.00;61813.31;5112982;28;21029;-73
2022/04/22 03:45:23;;;;;;;18.97;13.57;;;;;;;9.55;100.00;61819.06;5112914;28;20445;-73
2022/04/22 03:47:51;;;;;;;21.13;13.97;;;;;;;9.62;100.00;61829.63;5112959;28;20539;-72
2022/04/22 03:50:18;;;;;;;22.07;13.57;;;;;;;9.69;100.00;61831.50;5112930;28;20449;-73
2022/04/22 03:52:44;;;;;;;17.87;13.30;;;;;;;9.71;100.00;61833.63;5112991;28;20872;-72
2022/04/22 03:55:14;;;;;;;21.63;14.13;;;;;;;9.67;100.00;61832.44;5112731;28;20480;-72
2022/04/22 04:00:40;;;;;;;19.80;12.60;;;;;;;9.55;100.00;61819.06;5090223;28;20441;-74
2022/04/22 04:03:07;;;;;;;19.13;11.10;;;;;;;9.51;100.00;61814.78;5107628;28;20790;-72
2022/04/22 04:05:34;;;;;;;18.40;12.37;;;;;;;9.49;100.00;61815.19;5112888;28;20858;-71
2022/04/22 04:08:01;;;;;;;16.60;11.37;;;;;;;9.44;100.00;61809.84;5112620;28;20448;-72
2022/04/22 04:16:00;;;;;;;19.57;13.73;;;;;;;9.53;100.00;61816.91;5112611;28;20486;-72
2022/04/22 04:18:28;;;;;;;28.87;17.80;;;;;;;9.60;100.00;61824.44;5112465;28;20468;-73
2022/04/22 04:23:40;;;;;;;65.03;25.10;;;;;;;9.43;100.00;61811.31;5112357;28;20428;-73
2022/04/22 04:26:08;;;;;;;37.43;17.37;;;;;;;9.41;100.00;61806.63;5112432;28;20521;-72
2022/04/22 04:28:35;;;;;;;55.77;24.30;;;;;;;8.68;100.00;61724.53;5112314;28;20453;-74
2022/04/22 04:31:02;;;;;;;49.67;22.67;;;;;;;8.67;100.00;61720.94;5112421;28;20537;-72
2022/04/22 04:33:30;;;;;;;35.43;19.37;;;;;;;9.40;100.00;61803.53;5112110;28;20509;-74
2022/04/22 04:35:58;;;;;;;44.80;22.40;;;;;;;9.24;100.00;61788.97;5112124;28;20469;-73
2022/04/22 04:38:25;;;;;;;41.43;23.80;;;;;;;9.42;100.00;61807.72;5112200;28;20519;-72
2022/04/22 04:40:52;;;;;;;29.93;16.63;;;;;;;9.49;100.00;61812.66;5112549;28;20437;-72
2022/04/22 04:43:21;;;;;;;25.53;16.03;;;;;;;9.19;100.00;61781.63;5111967;28;20823;-72
2022/04/22 04:45:49;;;;;;;23.13;16.00;;;;;;;9.51;100.00;61822.41;5111238;28;20501;-72
2022/04/22 04:48:16;;;;;;;25.03;15.13;;;;;;;9.59;100.00;61820.81;5112088;28;20459;-72
2022/04/22 04:50:44;;;;;;;18.80;15.23;;;;;;;9.56;100.00;61822.69;5111733;28;20528;-73
2022/04/22 04:53:11;;;;;;;24.03;14.50;;;;;;;9.55;100.00;61824.16;5112078;28;20443;-72
2022/04/22 04:55:38;;;;;;;17.93;13.33;;;;;;;9.07;100.00;61773.88;5111520;28;20477;-72
2022/04/22 04:58:06;;;;;;;43.57;32.27;;;;;;;9.56;100.00;61820.16;5111951;28;20962;-72
2022/04/22 05:00:35;;;;;;;23.40;17.07;;;;;;;9.72;100.00;61839.81;5111596;28;20444;-73
2022/04/22 05:03:02;;;;;;;23.53;15.07;;;;;;;9.69;100.00;61834.59;5111232;28;20452;-72
2022/04/22 05:05:30;;;;;;;22.27;13.70;;;;;;;9.79;100.00;61847.28;5111685;28;20445;-71
2022/04/22 05:07:58;;;;;;;20.43;13.93;;;;;;;9.86;100.00;61857.84;5111483;28;20958;-72
2022/04/22 05:10:27;;;;;;;20.80;13.50;;;;;;;9.67;100.00;61834.44;5111604;28;20445;-72
2022/04/22 05:12:54;;;;;;;21.77;14.27;;;;;;;9.75;100.00;61843.00;5111592;28;20848;-73
2022/04/22 05:15:23;;;;;;;23.27;13.70;;;;;;;9.72;100.00;61834.72;5111588;28;20476;-72
2022/04/22 05:17:53;;;;;;;26.10;18.43;;;;;;;9.82;100.00;61847.97;5111384;28;20451;-72
2022/04/22 05:20:21;;;;;;;28.13;18.60;;;;;;;9.78;100.00;61843.69;5112033;28;20437;-72
2022/04/22 05:22:48;;;;;;;27.13;19.80;;;;;;;9.23;100.00;61788.44;5110650;28;20468;-72
2022/04/22 05:25:16;;;;;;;22.03;14.00;;;;;;;9.85;100.00;61848.63;5111444;28;20448;-72
2022/04/22 05:27:44;;;;;;;20.83;12.90;;;;;;;9.92;100.00;61861.22;5111334;28;20441;-72
2022/04/22 05:33:00;;;;;;;22.70;15.53;;;;;;;9.85;100.00;61846.09;5111896;28;20845;-73
2022/04/22 05:35:28;;;;;;;33.83;17.77;;;;;;;9.82;100.00;61853.56;5111190;28;20552;-72
2022/04/22 05:37:56;;;;;;;56.57;26.77;;;;;;;9.64;100.00;61831.25;5111661;28;20499;-73
2022/04/22 05:40:25;;;;;;;44.33;21.27;;;;;;;9.19;100.00;61784.16;5111315;28;20528;-72
2022/04/22 05:42:54;;;;;;;42.33;22.77;;;;;;;9.64;100.00;61828.72;5111400;28;20498;-73
2022/04/22 05:45:22;;;;;;;15.53;9.83;;;;;;;9.72;100.00;61834.72;5111515;28;20474;-73
2022/04/22 05:47:51;;;;;;;14.20;8.77;;;;;;;9.15;100.00;61774.81;5111767;28;20448;-73
2022/04/22 05:50:21;;;;;;;16.63;10.90;;;;;;;9.85;100.00;61856.25;5111635;28;20472;-73
2022/04/22 05:52:49;;;;;;;16.67;11.20;;;;;;;9.80;100.00;61845.81;5111622;28;20449;-73
2022/04/22 05:55:18;;;;;;;15.93;10.47;;;;;;;9.83;100.00;61846.50;5110976;28;20525;-72
2022/04/22 05:57:46;;;;;;;15.53;11.40;;;;;;;9.94;100.00;61863.34;5112485;28;20533;-72
2022/04/22 06:00:15;;;;;;;14.57;10.57;;;;;;;10.05;100.00;61873.13;5115143;28;20927;-72
2022/04/22 06:02:43;;;;;;;16.67;10.00;;;;;;;9.46;100.00;61809.44;5115201;28;20432;-73
2022/04/22 06:05:10;;;;;;;19.93;10.60;;;;;;;9.44;100.00;61804.75;5115095;28;20506;-73
2022/04/22 06:07:39;;;;;;;17.13;9.73;;;;;;;10.10;100.00;61880.50;5114897;28;20444;-73
2022/04/22 06:12:52;;;;;;;33.83;19.50;;;;;;;10.06;100.00;61876.72;5115172;28;20443;-72
2022/04/22 06:15:20;;;;;;;26.77;14.73;;;;;;;10.14;100.00;61880.22;5114881;28;20501;-74
2022/04/22 06:17:47;;;;;;;20.87;13.53;;;;;;;9.83;100.00;61847.03;5114725;28;20470;-73
2022/04/22 06:20:15;;;;;;;28.20;15.73;;;;;;;10.16;100.00;61886.94;5114608;28;20479;-72
2022/04/22 06:22:43;;;;;;;37.43;20.70;;;;;;;10.37;100.00;61906.88;5114382;28;20978;-72
2022/04/22 06:25:11;;;;;;;30.33;19.20;;;;;;;10.37;100.00;61909.41;5114603;28;20440;-72
2022/04/22 06:27:41;;;;;;;32.60;20.80;;;;;;;10.63;100.00;61934.72;5114340;28;20452;-71
2022/04/22 06:30:10;;;;;;;33.53;17.23;;;;;;;10.70;100.00;61949.88;5114611;28;20985;-73
2022/04/22 06:32:38;;;;;;;16.10;11.07;;;;;;;10.26;100.00;61902.75;5114498;28;20440;-72
2022/04/22 06:35:07;;;;;;;16.10;10.03;;;;;;;10.98;100.00;61974.78;5114588;28;20429;-71
2022/04/22 06:37:38;;;;;;;15.83;9.30;;;;;;;11.12;100.00;61988.69;5114210;28;20946;-73
2022/04/22 06:45:49;;;;;;;8.30;6.07;;;;;;;11.45;100.00;62024.09;5114453;28;20232;-73
2022/04/22 06:48:21;;;;;;;11.27;7.20;;;;;;;11.55;100.00;62034.81;5114287;28;20266;-73
2022/04/22 06:50:50;;;;;;;10.57;7.37;;;;;;;11.44;100.00;62023.00;5114446;28;20199;-73
2022/04/22 06:53:19;;;;;;;11.33;7.37;;;;;;;11.67;100.00;62048.22;5113726;28;20665;-73
2022/04/22 06:55:49;;;;;;;11.10;6.63;;;;;;;11.92;100.00;62068.84;5114172;28;20292;-73
2022/04/22 06:58:17;;;;;;;11.97;8.33;;;;;;;12.16;100.00;62099.72;5114106;28;20263;-73
2022/04/22 07:00:46;;;;;;;11.07;7.73;;;;;;;11.71;100.00;62054.53;5114046;28;20195;-73
2022/04/22 07:03:14;;;;;;;10.37;7.70;;;;;;;13.01;100.00;62190.97;5114138;28;20572;-73
2022/04/22 07:05:43;;;;;;;10.07;7.20;;;;;;;12.85;100.00;62168.13;5113897;28;20203;-73
2022/04/22 07:08:13;;;;;;;14.37;8.93;;;;;;;13.32;100.00;62218.63;5113701;28;20207;-73
2022/04/22 07:10:41;;;;;;;13.23;8.00;;;;;;;13.80;100.00;62269.66;5112796;28;20662;-73
2022/04/22 07:13:11;;;;;;;12.27;6.33;;;;;;;13.99;100.00;62293.16;5114102;28;20648;-74
2022/04/22 07:15:39;;;;;;;9.60;7.20;;;;;;;14.14;100.00;62309.31;5113235;28;20219;-72
2022/04/22 07:18:08;;;;;;;8.57;6.47;;;;;;;14.25;100.00;62321.13;5113509;28;20253;-74
2022/04/22 07:20:36;;;;;;;8.80;5.97;;;;;;;14.43;100.00;62336.88;5113209;28;20203;-72
2022/04/22 07:23:03;;;;;;;11.23;5.63;;;;;;;14.42;100.00;62338.88;5113668;28;20194;-73
2022/04/22 07:25:31;;;;;;;6.90;5.80;;;;;;;14.65;100.00;62365.66;5113195;28;20252;-73
2022/04/22 07:27:59;;;;;;;7.70;6.03;;;;;;;14.67;100.00;62365.25;5112090;28;20654;-73
2022/04/22 07:30:27;;;;;;;7.73;5.67;;;;;;;14.91;100.00;62391.59;5113265;28;20233;-74
2022/04/22 07:32:55;;;;;;;11.37;6.37;;;;;;;15.10;100.00;62408.94;5113099;28;20199;-74
2022/04/22 07:35:22;;;;;;;8.60;5.83;;;;;;;14.95;100.00;62398.44;5113197;28;20290;-72
2022/04/22 07:37:51;;;;;;;8.33;5.53;;;;;;;15.00;100.00;62403.84;5113080;27;20234;-72
2022/04/22 07:40:20;;;;;;;8.37;5.23;;;;;;;14.91;100.00;62393.63;5112989;28;20195;-74
2022/04/22 07:48:18;;;;;;;7.90;5.43;;;;;;;14.53;100.00;62350.19;5113433;28;20267;-73
2022/04/22 07:50:48;;;;;;;7.67;5.90;;;;;;;15.65;100.00;62473.28;5112848;28;20661;-73
2022/04/22 07:53:17;;;;;;;8.37;6.10;;;;;;;15.79;100.00;62488.34;5113196;28;20195;-74
2022/04/22 07:55:46;;;;;;;8.90;5.00;;;;;;;15.90;100.00;62500.19;5112579;28;20752;-72
2022/04/22 07:58:13;;;;;;;7.83;5.33;;;;;;;16.38;100.00;62550.81;5112793;28;20230;-73
2022/04/22 08:00:41;;;;;;;7.07;5.10;;;;;;;16.78;100.00;62591.38;5112890;28;20202;-72
2022/04/22 08:03:09;;;;;;;5.93;4.20;;;;;;;16.68;100.00;62581.13;5112676;28;20229;-72
2022/04/22 08:05:37;;;;;;;6.57;5.13;;;;;;;16.12;100.00;62517.69;5112916;28;20217;-73
2022/04/22 08:08:05;;;;;;;4.83;4.33;;;;;;;15.66;100.00;62474.34;5112593;28;20259;-73
2022/04/22 08:10:32;;;;;;;6.27;4.57;;;;;;;15.91;100.00;62498.72;5112437;28;20195;-73
2022/04/22 08:12:59;;;;;;;5.80;4.60;;;;;;;16.14;100.00;62522.41;5112677;28;20195;-73
2022/04/22 08:15:25;;;;;;;8.50;4.73;;;;;;;16.17;100.00;62526.16;5112541;28;20195;-72
2022/04/22 08:17:55;;;;;;;10.70;4.60;;;;;;;15.96;100.00;62504.09;5112175;28;20227;-73
2022/04/22 08:20:21;;;;;;;6.03;4.80;;;;;;;15.65;100.00;62470.72;5112270;28;20567;-74
2022/04/22 08:22:48;;;;;;;7.30;5.07;;;;;;;16.54;100.00;62562.94;5111893;28;20251;-73
2022/04/22 08:25:15;;;;;;;6.40;4.50;;;;;;;17.02;100.00;62614.69;5112576;28;20202;-73
2022/04/22 08:27:45;;;;;;;7.63;4.90;;;;;;;17.46;100.00;62664.69;5112502;28;20203;-72
2022/04/22 08:30:13;;;;;;;9.37;5.13;;;;;;;17.25;100.00;62639.47;5112101;28;20279;-72
2022/04/22 08:32:40;;;;;;;10.03;4.63;;;;;;;17.78;100.00;62698.13;5111691;28;20199;-72
2022/04/22 08:35:09;;;;;;;10.10;5.07;;;;;;;18.36;100.00;62761.25;5112354;28;20632;-73
2022/04/22 08:37:37;;;;;;;11.03;4.77;;;;;;;18.75;100.00;62805.44;5111608;28;20219;-73
2022/04/22 08:40:06;;;;;;;9.90;5.07;;;;;;;18.88;100.00;62819.47;5112091;28;20733;-73
2022/04/22 08:42:34;;;;;;;7.27;4.30;;;;;;;19.20;100.00;62858.66;5112005;28;20207;-73
2022/04/22 08:45:01;;;;;;;7.60;4.60;;;;;;;19.13;100.00;62846.47;5112438;28;20194;-72
2022/04/22 08:50:16;;;;;;;7.17;4.70;;;;;;;19.93;100.00;62922.03;5112113;28;20346;-72
2022/04/22 08:52:44;;;;;;;8.57;4.30;;;;;;;20.34;100.00;62976.22;5111910;28;20662;-72
2022/04/22 08:55:13;;;;;;;7.80;4.90;;;;;;;20.34;100.00;62976.22;5111986;28;20248;-74
2022/04/22 08:57:42;;;;;;;8.30;5.00;;;;;;;20.35;100.00;62977.28;5111167;28;20231;-72
2022/04/22 09:00:10;;;;;;;9.83;4.80;;;;;;;20.11;100.00;62954.44;5112040;28;20278;-73
2022/04/22 09:02:37;;;;;;;9.13;4.63;;;;;;;20.15;100.00;62955.63;5111663;28;20263;-72
2022/04/22 09:05:06;;;;;;;9.80;4.40;;;;;;;19.97;100.00;62936.16;5111764;28;20576;-73
2022/04/22 09:07:35;;;;;;;9.10;4.10;;;;;;;20.12;100.00;62952.41;5111989;28;20210;-71
2022/04/22 09:10:02;;;;;;;5.40;3.83;;;;;;;19.84;100.00;62925.25;5111833;28;20637;-73
2022/04/22 09:12:29;;;;;;;6.17;4.17;;;;;;;19.72;100.00;62904.00;5111758;28;20199;-71
2022/04/22 09:14:57;;;;;;;10.60;4.07;;;;;;;19.66;100.00;62905.25;5111803;28;20263;-72
2022/04/22 09:17:26;;;;;;;6.90;4.17;;;;;;;18.86;100.00;62809.56;5111490;28;20230;-73
2022/04/22 09:19:53;;;;;;;6.50;3.97;;;;;;;19.41;100.00;62870.47;5111650;28;20264;-73
2022/04/22 09:22:21;;;;;;;7.40;4.50;;;;;;;19.70;100.00;62901.81;5111724;28;20607;-73
2022/04/22 09:24:51;;;;;;;6.67;4.20;;;;;;;19.42;100.00;62876.75;5111809;28;20199;-73
2022/04/22 09:27:18;;;;;;;5.13;4.20;;;;;;;18.74;100.00;62803.81;5111634;28;20290;-72
2022/04/22 09:29:53;;;;;;;6.73;4.10;;;;;;;19.49;100.00;62879.13;5111614;28;20283;-72
2022/04/22 09:32:24;;;;;;;9.47;4.77;;;;;;;19.61;100.00;62895.22;5112304;28;20194;-72
2022/04/22 09:34:51;;;;;;;11.90;4.47;;;;;;;19.53;100.00;62886.03;5115512;28;20199;-72
2022/04/22 09:42:53;;;;;;;7.47;4.33;;;;;;;19.47;100.00;62879.56;5115779;28;20255;-71
2022/04/22 09:45:20;;;;;;;7.93;4.13;;;;;;;19.43;100.00;62873.19;5115637;28;20199;-72
2022/04/22 09:47:59;;;;;;;6.07;4.30;;;;;;;19.67;100.00;62901.16;5115369;28;20203;-72
2022/04/22 09:50:44;;;;;;;5.60;4.33;;;;;;;19.58;100.00;62891.44;5115392;28;20729;-73
2022/04/22 09:53:13;;;;;;;9.90;4.50;;;;;;;19.79;100.00;62911.53;5115535;28;20248;-73
2022/04/22 09:55:54;;;;;;;11.33;4.27;;;;;;;19.94;100.00;62932.94;5115358;28;20267;-73
2022/04/22 09:58:25;;;;;;;7.60;4.10;;;;;;;20.40;100.00;62982.69;5115167;28;20781;-73
2022/04/22 10:01:00;;;;;;;6.07;4.30;;;;;;;20.71;100.00;63011.03;5114982;28;20237;-73
2022/04/22 10:03:29;;;;;;;9.67;3.73;;;;;;;20.75;100.00;63017.94;5115424;27;20251;-73
2022/04/22 10:05:57;;;;;;;6.97;3.93;;;;;;;20.69;100.00;63008.88;5115085;28;20199;-72
2022/04/22 10:08:28;;;;;;;9.27;5.67;;;;;;;20.65;100.00;63004.00;5115526;28;20737;-72
2022/04/22 10:11:01;;;;;;;7.20;4.90;;;;;;;20.44;100.00;62987.03;5115462;28;20202;-73
2022/04/22 10:13:34;;;;;;;6.33;3.93;;;;;;;20.45;100.00;62984.97;5114844;28;20201;-73
2022/04/22 10:16:04;;;;;;;7.37;4.10;;;;;;;20.89;100.00;63030.50;5115405;28;20285;-73
2022/04/22 10:18:32;;;;;;;7.40;4.20;;;;;;;21.29;100.00;63075.31;5114649;28;20318;-72
2022/04/22 10:21:00;;;;;;;5.70;3.63;;;;;;;21.15;100.00;63057.59;5114661;28;20276;-72
2022/04/22 10:23:29;;;;;;;8.73;3.60;;;;;;;21.07;100.00;63051.50;5114775;28;20218;-73
2022/04/22 10:25:57;;;;;;;9.97;3.70;;;;;;;21.03;100.00;63050.84;5114389;28;20203;-72
2022/04/22 10:28:25;;;;;;;5.97;3.60;;;;;;;21.03;100.00;63043.06;5115281;28;20347;-72
2022/04/22 10:30:54;;;;;;;8.20;3.87;;;;;;;21.00;100.00;63047.59;5114577;28;20230;-74
2022/04/22 10:33:25;;;;;;;8.93;4.13;;;;;;;21.01;100.00;63048.69;5114786;28;20191;-72
2022/04/22 10:35:58;;;;;;;9.53;4.03;;;;;;;21.18;100.00;63061.38;5114344;28;20213;-73
2022/04/22 10:38:33;;;;;;;9.20;4.53;;;;;;;20.89;100.00;63035.69;5114360;28;20230;-73
2022/04/22 10:41:05;;;;;;;4.50;3.50;;;;;;;20.54;100.00;62992.66;5114582;28;20259;-72
2022/04/22 10:43:32;;;;;;;5.50;3.77;;;;;;;20.66;100.00;63005.63;5113905;28;20199;-73
2022/04/22 10:49:13;;;;;;;6.57;4.13;;;;;;;21.91;100.00;63137.28;5114532;28;20218;-72
2022/04/22 10:52:00;;;;;;;11.87;4.27;;;;;;;22.40;100.00;63190.34;5114252;28;20202;-72
2022/04/22 10:55:04;;;;;;;6.20;4.70;;;;;;;22.53;100.00;63207.03;5114156;28;20220;-73
2022/04/22 10:57:34;;;;;;;11.93;5.07;;;;;;;21.84;100.00;63138.00;5114020;28;20230;-73
2022/04/22 11:00:27;;;;;;;9.10;4.50;;;;;;;22.30;100.00;63187.28;5113880;28;20234;-72
2022/04/22 11:03:02;;;;;;;7.23;3.83;;;;;;;22.64;100.00;63218.41;5113875;28;20215;-72
2022/04/22 11:05:35;;;;;;;7.83;4.27;;;;;;;22.57;100.00;63213.97;5113993;28;20198;-73
2022/04/22 11:08:02;;;;;;;5.13;3.80;;;;;;;22.50;100.00;63203.75;5112742;28;20238;-73
2022/04/22 11:11:06;;;;;;;8.40;4.33;;;;;;;22.93;100.00;63249.84;5113793;28;20259;-74
2022/04/22 11:13:39;;;;;;;5.77;3.60;;;;;;;23.25;100.00;63289.19;5113620;28;20279;-73
2022/04/22 11:16:08;;;;;;;11.70;3.90;;;;;;;23.80;100.00;63346.25;5112683;28;20396;-73
2022/04/22 11:18:35;;;;;;;9.10;4.10;;;;;;;23.96;100.00;63361.00;5113345;28;20693;-73
2022/04/22 11:21:04;;;;;;;8.33;3.70;;;;;;;22.97;100.00;63253.63;5114018;28;20213;-73
2022/04/22 11:23:38;;;;;;;10.03;4.03;;;;;;;23.71;100.00;63339.06;5113795;28;20202;-72
2022/04/22 11:26:06;;;;;;;6.13;3.17;;;;;;;23.91;100.00;63360.22;5113423;28;20271;-73
2022/04/22 11:28:40;;;;;;;5.20;3.70;;;;;;;23.61;100.00;63330.28;5113226;28;20202;-72
2022/04/22 11:31:09;;;;;;;4.20;3.40;;;;;;;23.09;100.00;63269.22;5113637;28;20287;-73
2022/04/22 11:33:45;;;;;;;11.10;4.30;;;;;;;22.67;100.00;63222.22;5113502;28;20191;-72
2022/04/22 11:36:12;;;;;;;7.43;4.00;;;;;;;23.30;100.00;63289.41;5113277;28;20190;-73
2022/04/22 11:38:46;;;;;;;6.47;3.90;;;;;;;23.13;100.00;63274.13;5113166;28;20374;-73
2022/04/22 11:41:14;;;;;;;10.70;3.97;;;;;;;23.51;100.00;63312.19;5113371;28;20199;-72
2022/04/22 11:43:43;;;;;;;10.20;4.03;;;;;;;23.36;100.00;63298.53;5113296;28;20226;-73
2022/04/22 11:46:12;;;;;;;6.73;3.30;;;;;;;23.46;100.00;63309.38;5112975;28;20632;-73
2022/04/22 11:48:46;;;;;;;9.67;5.03;;;;;;;23.69;100.00;63331.72;5112627;28;20259;-72
2022/04/22 11:51:13;;;;;;;12.00;4.73;;;;;;;23.55;100.00;63319.13;5112757;28;20218;-73
2022/04/22 11:53:46;;;;;;;6.93;3.90;;;;;;;23.56;100.00;63320.22;5112802;28;20256;-72
2022/04/22 11:56:18;;;;;;;7.57;4.83;;;;;;;23.06;100.00;63263.38;5111260;28;20203;-72
2022/04/22 11:58:47;;;;;;;10.40;3.70;;;;;;;22.92;100.00;63248.22;5112580;28;20650;-72
2022/04/22 12:06:43;;;;;;;7.30;4.00;;;;;;;22.65;100.00;63225.25;5112698;28;20205;-72
2022/04/22 12:09:10;;;;;;;8.40;4.93;;;;;;;22.49;100.00;63210.47;5112719;28;20255;-72
2022/04/22 12:11:42;;;;;;;8.83;4.03;;;;;;;23.31;100.00;63290.47;5112476;28;20255;-73
2022/04/22 12:14:11;;;;;;;7.07;4.10;;;;;;;23.75;100.00;63337.66;5112415;28;20244;-73
2022/04/22 12:16:38;;;;;;;8.37;4.00;;;;;;;23.66;100.00;63331.06;5112353;28;20251;-72
2022/04/22 12:19:08;;;;;;;7.53;4.80;;;;;;;22.85;100.00;63243.22;5112719;28;20358;-72
2022/04/22 12:21:35;;;;;;;10.57;6.37;;;;;;;21.89;100.00;63148.06;5112371;28;20195;-73